Time;durP1;ratioP1;P1;durP2;ratioP2;P2;SDS_P1;SDS_P2;PMS_P1;PMS_P2;Temp;Humidity;BMP_temperature;BMP_pressure;BME280_temperature;BME280_humidity;BME280_pressure;Samples;Min_cycle;Max_cycle;Signal;HPM_P1;HPM_P2
2023/02/16 00:01:26;;;;;;;61.80;31.40;;;;;;;-0.85;91.40;101381.77;107550;1253;78763;-60
2023/02/16 00:04:18;;;;;;;62.70;32.20;;;;;;;-0.84;91.41;101380.27;107607;1257;81178;-58
2023/02/16 00:06:57;;;;;;;65.90;33.40;;;;;;;-0.80;91.49;101379.84;107536;1253;99139;-58
2023/02/16 00:09:37;;;;;;;62.90;32.60;;;;;;;-0.78;91.50;101375.65;107539;1252;89408;-53
2023/02/16 00:15:21;;;;;;;61.30;31.60;;;;;;;-0.82;91.44;101367.61;107532;1252;76328;-59
2023/02/16 00:18:15;;;;;;;68.90;34.40;;;;;;;-0.81;91.49;101359.39;107547;1252;82824;-58
2023/02/16 00:20:58;;;;;;;65.40;32.20;;;;;;;-0.80;91.51;101352.44;107532;1253;99443;-60
2023/02/16 00:23:42;;;;;;;73.40;37.00;;;;;;;-0.78;91.64;101348.64;107563;1253;87783;-58
2023/02/16 00:26:28;;;;;;;67.40;33.90;;;;;;;-0.75;91.67;101338.87;107508;1253;92934;-58
2023/02/16 00:29:14;;;;;;;73.90;37.50;;;;;;;-0.74;91.72;101336.83;107554;1253;79704;-59
2023/02/16 00:31:54;;;;;;;73.80;37.40;;;;;;;-0.68;91.93;101336.33;107528;1252;83706;-58
2023/02/16 00:34:35;;;;;;;71.10;34.70;;;;;;;-0.68;91.96;101329.39;107533;1253;97662;-61
2023/02/16 00:37:19;;;;;;;72.60;38.90;;;;;;;-0.68;92.04;101328.34;107574;1253;88042;-60
2023/02/16 00:40:02;;;;;;;68.60;36.60;;;;;;;-0.66;92.09;101324.30;107532;1252;94343;-56
2023/02/16 00:42:45;;;;;;;75.00;37.80;;;;;;;-0.63;92.02;101322.73;107511;1252;81166;-58
2023/02/16 00:45:24;;;;;;;76.40;38.20;;;;;;;-0.62;92.10;101317.20;107504;1252;83431;-59
2023/02/16 00:48:09;;;;;;;71.00;37.30;;;;;;;-0.63;92.15;101315.81;107529;1252;98932;-58
2023/02/16 00:50:44;;;;;;;75.00;38.60;;;;;;;-0.61;92.28;101315.20;107526;1252;87524;-57
2023/02/16 00:53:20;;;;;;;72.30;37.20;;;;;;;-0.63;92.22;101312.64;107508;1252;93191;-60
2023/02/16 00:56:03;;;;;;;75.70;39.10;;;;;;;-0.61;92.32;101313.43;107527;1252;81749;-61
2023/02/16 00:58:39;;;;;;;75.70;38.90;;;;;;;-0.57;92.40;101311.77;107528;1252;82102;-58
2023/02/16 01:01:20;;;;;;;79.90;41.40;;;;;;;-0.48;92.77;101310.30;107537;1252;98377;-58
2023/02/16 01:04:04;;;;;;;72.00;37.80;;;;;;;-0.43;92.63;101303.64;107519;1252;88385;-58
2023/02/16 01:12:50;;;;;;;73.60;38.30;;;;;;;-0.45;92.41;101297.75;107520;1253;82620;-61
2023/02/16 01:15:27;;;;;;;72.00;37.70;;;;;;;-0.49;92.46;101297.09;107535;1252;98221;-61
2023/02/16 01:18:08;;;;;;;77.10;41.20;;;;;;;-0.47;92.44;101296.25;107549;1253;88273;-60
2023/02/16 01:20:43;;;;;;;77.10;38.70;;;;;;;-0.46;92.31;101296.05;107536;1252;94638;-60
2023/02/16 01:23:23;;;;;;;73.20;38.50;;;;;;;-0.54;92.30;101295.46;107538;1253;80129;-59
2023/02/16 01:26:01;;;;;;;73.30;37.00;;;;;;;-0.58;92.23;101291.50;107521;1252;83441;-60
2023/02/16 01:28:41;;;;;;;72.40;38.10;;;;;;;-0.66;92.21;101285.97;107572;1254;98411;-59
2023/02/16 01:31:18;;;;;;;68.70;36.70;;;;;;;-0.72;92.15;101286.00;107569;1252;88690;-58
2023/02/16 01:34:01;;;;;;;70.00;35.80;;;;;;;-0.79;92.10;101280.98;107515;1253;94743;-62
2023/02/16 01:36:40;;;;;;;;;;;;;;;-0.88;92.09;101276.40;107531;1252;82185;-60
2023/02/16 01:39:21;;;;;;;64.60;34.00;;;;;;;-0.93;92.15;101276.71;107541;1252;82349;-61
2023/02/16 01:42:18;;;;;;;68.70;35.60;;;;;;;-0.96;92.14;101271.77;107548;1257;96807;-60
2023/02/16 01:44:58;;;;;;;70.60;37.50;;;;;;;-0.96;92.25;101269.65;107571;1253;88818;-59
2023/02/16 01:47:42;;;;;;;69.80;36.10;;;;;;;-0.98;92.22;101267.50;107553;1253;95744;-58
2023/02/16 01:50:25;;;;;;;70.70;37.30;;;;;;;-1.01;92.17;101261.85;107579;1257;80427;-61
2023/02/16 01:53:14;;;;;;;68.40;36.80;;;;;;;-1.07;92.29;101258.35;107538;1254;82394;-60
2023/02/16 01:56:04;;;;;;;75.00;37.00;;;;;;;-1.09;92.21;101255.08;107562;1252;97775;-58
2023/02/16 01:58:50;;;;;;;74.50;36.90;;;;;;;-1.10;92.42;101256.92;107568;1253;88498;-61
2023/02/16 02:01:44;;;;;;;72.40;36.90;;;;;;;-1.09;92.39;101254.06;107508;1253;94607;-61
2023/02/16 02:07:32;;;;;;;70.50;37.40;;;;;;;-1.08;92.37;101245.83;107569;1253;83106;-61
2023/02/16 02:10:16;;;;;;;75.20;36.70;;;;;;;-1.08;92.27;101244.06;107568;1253;98886;-60
2023/02/16 02:12:56;;;;;;;78.40;39.60;;;;;;;-1.10;92.36;101244.52;107558;1253;87761;-60
2023/02/16 02:15:34;;;;;;;72.50;37.20;;;;;;;-1.06;92.74;101245.90;107565;1257;92901;-60
2023/02/16 02:18:16;;;;;;;77.00;39.30;;;;;;;-1.06;92.72;101250.82;107554;1253;79621;-61
2023/02/16 02:24:58;;;;;;;73.60;36.90;;;;;;;-1.09;92.61;101240.23;107584;1253;99476;-57
2023/02/16 02:27:46;;;;;;;77.80;39.60;;;;;;;-1.09;92.42;101229.67;107549;1253;89201;-57
2023/02/16 02:30:42;;;;;;;71.00;36.80;;;;;;;-1.15;92.36;101231.29;107547;1257;94535;-62
2023/02/16 02:33:33;;;;;;;70.60;37.20;;;;;;;-1.14;92.44;101233.15;107545;1258;79223;-59
2023/02/16 02:36:22;;;;;;;76.30;36.70;;;;;;;-1.17;92.41;101225.72;107579;1253;82096;-58
2023/02/16 02:39:17;;;;;;;77.40;39.60;;;;;;;-1.16;92.45;101221.23;107504;1253;100170;-61
2023/02/16 02:42:05;;;;;;;76.70;37.70;;;;;;;-1.25;92.37;101221.77;107566;1252;87655;-60
2023/02/16 02:44:51;;;;;;;70.80;37.90;;;;;;;-1.32;92.35;101221.67;107576;1253;95700;-60
2023/02/16 02:47:43;;;;;;;73.70;37.40;;;;;;;-1.34;92.37;101222.01;107525;1257;80403;-61
2023/02/16 02:51:27;;;;;;;76.00;39.60;;;;;;;-1.41;92.37;101214.48;107567;1256;83044;-60
2023/02/16 02:53:45;;;;;;;73.90;37.60;;;;;;;-1.46;92.30;101211.10;107579;1253;99168;-60
2023/02/16 03:02:34;;;;;;;76.50;39.60;;;;;;;-1.42;92.76;101195.47;107520;1253;80594;-58
2023/02/16 03:05:16;;;;;;;79.20;39.60;;;;;;;-1.41;92.55;101191.71;107565;1252;81624;-57
2023/02/16 03:08:05;;;;;;;77.20;38.40;;;;;;;-1.40;92.58;101187.21;107554;1257;100256;-57
2023/02/16 03:13:54;;;;;;;75.30;37.60;;;;;;;-1.45;92.38;101179.93;107585;1252;93874;-58
2023/02/16 03:16:41;;;;;;;74.40;38.80;;;;;;;-1.44;92.68;101172.47;107544;1253;81686;-58
2023/02/16 03:31:37;;;;;;;;;;;;;;;-1.61;92.59;101170.16;107576;1252;80190;-60
2023/02/16 03:34:15;;;;;;;76.70;38.60;;;;;;;-1.69;92.33;101169.95;107524;1252;82796;-60
2023/02/16 03:36:57;;;;;;;75.70;38.80;;;;;;;-1.75;92.37;101165.22;107535;1253;97339;-61
2023/02/16 03:40:27;;;;;;;77.30;38.20;;;;;;;-1.78;92.37;101164.15;107536;1253;88661;-59
2023/02/16 03:42:39;;;;;;;78.90;37.90;;;;;;;-1.78;92.40;101159.55;107531;1253;94728;-58
2023/02/16 03:45:15;;;;;;;73.60;37.70;;;;;;;-1.81;92.40;101157.23;107590;1253;80656;-58
2023/02/16 03:47:50;;;;;;;70.40;37.10;;;;;;;-1.83;92.47;101151.36;107546;1253;81248;-57
2023/02/16 03:50:29;;;;;;;78.80;39.10;;;;;;;-1.85;92.41;101143.00;107513;1252;99861;-61
2023/02/16 03:53:09;;;;;;;74.50;37.30;;;;;;;-1.85;92.34;101138.97;107572;1253;87421;-60
2023/02/16 03:55:50;;;;;;;77.50;38.30;;;;;;;-1.84;92.51;101136.59;107558;1257;95493;-58
2023/02/16 03:58:33;;;;;;;84.50;40.40;;;;;;;-1.81;92.73;101133.75;107536;1253;81251;-58
2023/02/16 04:01:13;;;;;;;76.20;38.10;;;;;;;-1.73;92.68;101131.55;107518;1252;82657;-58
2023/02/16 04:03:56;;;;;;;76.40;41.10;;;;;;;-1.72;92.97;101133.93;107561;1252;98543;-60
2023/02/16 04:06:36;;;;;;;80.10;38.30;;;;;;;-1.62;93.11;101128.00;107556;1253;87888;-61
2023/02/16 04:09:19;;;;;;;75.00;37.00;;;;;;;-1.63;92.94;101131.06;107519;1253;95722;-57
2023/02/16 04:14:57;;;;;;;78.80;39.20;;;;;;;-1.67;93.01;101123.20;107541;1253;82769;-60
2023/02/16 04:17:34;;;;;;;75.70;38.60;;;;;;;-1.69;92.84;101124.23;107575;1253;99479;-60
2023/02/16 04:20:14;;;;;;;74.50;39.60;;;;;;;-1.71;92.87;101125.08;107565;1253;87199;-58
2023/02/16 04:23:02;;;;;;;82.10;41.80;;;;;;;-1.71;92.92;101123.96;107529;1257;95556;-58
2023/02/16 04:25:39;;;;;;;87.40;41.80;;;;;;;-1.70;92.70;101124.29;107568;1257;81873;-60
2023/02/16 04:28:21;;;;;;;80.10;38.60;;;;;;;-1.70;92.81;101122.69;107587;1253;83242;-59
2023/02/16 04:30:55;;;;;;;78.10;39.10;;;;;;;-1.75;92.68;101119.45;107508;1253;99980;-58
2023/02/16 04:33:34;;;;;;;76.40;38.30;;;;;;;-1.81;92.61;101121.22;107551;1257;88687;-61
2023/02/16 04:36:11;;;;;;;81.40;38.10;;;;;;;-1.84;92.49;101118.56;107549;1253;94771;-60
2023/02/16 04:38:54;;;;;;;77.10;39.80;;;;;;;-1.85;92.81;101116.88;107557;1253;80800;-58
2023/02/16 04:41:41;;;;;;;77.60;40.30;;;;;;;-1.83;92.84;101112.33;107564;1253;82567;-58
2023/02/16 04:44:24;;;;;;;78.60;40.20;;;;;;;-1.83;92.83;101116.23;107536;1253;99731;-58
2023/02/16 04:47:06;;;;;;;79.10;41.20;;;;;;;-1.82;92.84;101116.71;107538;1252;87021;-57
2023/02/16 04:49:47;;;;;;;77.30;39.40;;;;;;;-1.81;92.83;101117.89;107552;1253;94709;-61
2023/02/16 04:52:29;;;;;;;81.20;40.80;;;;;;;-1.76;93.04;101120.40;107201;1253;484511;-61
2023/02/16 04:55:09;;;;;;;75.20;38.90;;;;;;;-1.73;92.95;101119.88;107533;1254;81100;-60
2023/02/16 04:57:45;;;;;;;84.30;40.70;;;;;;;-1.71;92.97;101117.98;107529;1255;97695;-60
2023/02/16 05:00:22;;;;;;;75.30;40.30;;;;;;;-1.66;93.20;101114.86;107382;1253;89079;-56
2023/02/16 05:03:04;;;;;;;75.40;40.30;;;;;;;-1.64;93.24;101113.64;107541;1255;92837;-58
2023/02/16 05:05:50;;;;;;;78.80;38.90;;;;;;;-1.67;93.00;101106.94;107563;1254;81599;-59
2023/02/16 05:08:32;;;;;;;75.60;40.50;;;;;;;-1.62;93.08;101106.15;107537;1252;81596;-58
2023/02/16 05:17:20;;;;;;;92.40;45.00;;;;;;;-1.72;92.96;101100.23;107555;1254;96288;-58
2023/02/16 05:20:04;;;;;;;85.50;42.30;;;;;;;-1.72;93.11;101098.08;107515;1253;81576;-61
2023/02/16 05:22:46;;;;;;;87.30;43.90;;;;;;;-1.72;93.09;101096.52;107592;1253;82813;-61
2023/02/16 05:25:30;;;;;;;79.70;40.70;;;;;;;-1.73;93.11;101100.97;107544;1253;98394;-58
2023/02/16 05:28:16;;;;;;;88.30;45.20;;;;;;;-1.73;93.09;101102.02;107523;1254;88016;-60
2023/02/16 05:31:02;;;;;;;86.30;42.50;;;;;;;-1.69;93.14;101100.35;107540;1252;95432;-57
2023/02/16 05:33:48;;;;;;;84.60;42.50;;;;;;;-1.67;93.25;101097.08;107548;1254;80575;-60
2023/02/16 05:36:29;;;;;;;88.00;43.30;;;;;;;-1.61;93.25;101096.19;107540;1255;82441;-61
2023/02/16 05:39:14;;;;;;;83.80;42.00;;;;;;;-1.55;93.67;101090.83;107540;1253;99890;-57
2023/02/16 05:41:57;;;;;;;85.40;42.10;;;;;;;-1.51;93.52;101089.34;107537;1253;89356;-59
2023/02/16 05:44:37;;;;;;;81.30;41.70;;;;;;;-1.49;93.53;101087.46;107545;1252;94545;-56
2023/02/16 05:47:15;;;;;;;81.10;40.40;;;;;;;-1.47;93.50;101094.95;107522;1253;81718;-58
2023/02/16 05:49:57;;;;;;;89.00;43.90;;;;;;;-1.42;93.47;101091.27;107582;1253;80417;-60
2023/02/16 05:52:42;;;;;;;86.60;40.30;;;;;;;-1.40;93.44;101086.51;107564;1253;99490;-60
2023/02/16 05:55:28;;;;;;;85.90;42.50;;;;;;;-1.36;93.84;101082.54;107559;1253;87616;-60
2023/02/16 05:58:09;;;;;;;90.80;43.70;;;;;;;-1.29;93.82;101078.40;107559;1252;94857;-61
2023/02/16 06:00:47;;;;;;;85.80;43.10;;;;;;;-1.25;93.70;101080.80;107583;1254;80332;-57
2023/02/16 06:03:31;;;;;;;83.30;42.10;;;;;;;-1.23;93.86;101083.88;107593;1253;81363;-59
2023/02/16 06:06:10;;;;;;;79.90;40.90;;;;;;;-1.19;93.76;101089.06;107538;1257;98559;-59
2023/02/16 06:08:45;;;;;;;83.50;42.50;;;;;;;-1.12;93.81;101094.30;107603;1257;86930;-60
2023/02/16 06:11:40;;;;;;;83.50;42.40;;;;;;;-1.02;93.84;101100.70;107588;1257;93878;-61
2023/02/16 06:14:28;;;;;;;85.50;44.50;;;;;;;-0.93;93.81;101088.63;107576;1253;78590;-59
2023/02/16 06:17:16;;;;;;;84.10;41.70;;;;;;;-0.91;93.76;101079.30;107557;1255;81866;-61
2023/02/16 06:20:00;;;;;;;90.70;43.40;;;;;;;-0.86;93.80;101084.45;107585;1257;99456;-61
2023/02/16 06:22:45;;;;;;;86.80;43.80;;;;;;;-0.77;93.89;101080.27;107573;1254;87524;-60
2023/02/16 06:25:25;;;;;;;89.60;43.30;;;;;;;-0.65;93.95;101082.87;107604;1254;95219;-58
2023/02/16 06:28:13;;;;;;;83.10;43.20;;;;;;;-0.54;93.84;101078.24;107594;1254;79067;-57
2023/02/16 06:30:56;;;;;;;84.40;43.90;;;;;;;-0.43;93.88;101076.09;107586;1254;82676;-61
2023/02/16 06:33:42;;;;;;;83.10;41.20;;;;;;;-0.35;93.85;101074.80;107569;1257;98116;-59
2023/02/16 06:36:19;;;;;;;84.30;41.80;;;;;;;-0.23;93.86;101068.51;107607;1256;88848;-58
2023/02/16 06:38:59;;;;;;;89.40;43.60;;;;;;;-0.14;93.85;101066.96;107606;1254;95844;-58
2023/02/16 06:41:43;;;;;;;84.60;42.80;;;;;;;0.04;93.84;101069.65;107587;1254;80165;-58
2023/02/16 06:44:23;;;;;;;68.20;36.50;;;;;;;0.20;93.77;101068.71;107614;1254;82951;-57
2023/02/16 06:47:02;;;;;;;87.30;43.40;;;;;;;0.29;93.70;101069.66;107578;1256;99577;-58
2023/02/16 06:49:46;;;;;;;85.60;43.60;;;;;;;0.45;93.71;101073.67;107607;1257;88983;-60
2023/02/16 06:52:24;;;;;;;81.70;43.90;;;;;;;0.63;93.65;101078.59;107562;1253;95265;-62
2023/02/16 06:55:06;;;;;;;83.90;44.80;;;;;;;0.75;93.63;101075.41;107588;1255;79519;-57
2023/02/16 06:57:48;;;;;;;85.50;43.60;;;;;;;0.85;93.38;101076.27;107587;1255;82449;-57
2023/02/16 07:00:25;;;;;;;87.90;45.60;;;;;;;0.96;93.29;101073.50;107588;1253;97481;-57
2023/02/16 07:03:05;;;;;;;86.00;44.60;;;;;;;1.12;93.09;101074.08;107594;1254;88221;-57
2023/02/16 07:05:53;;;;;;;82.60;45.10;;;;;;;1.35;92.97;101070.45;107564;1253;95185;-61
2023/02/16 07:08:33;;;;;;;84.10;44.20;;;;;;;1.54;92.86;101068.08;107538;1255;81345;-55
2023/02/16 07:11:16;;;;;;;84.70;46.20;;;;;;;1.65;93.04;101061.32;107390;1257;81584;-57
2023/02/16 07:13:53;;;;;;;87.40;46.20;;;;;;;1.95;93.30;101059.74;107622;1256;100448;-58
2023/02/16 07:16:35;;;;;;;83.20;47.40;;;;;;;2.36;93.56;101055.29;107614;1256;89032;-58
2023/02/16 07:19:17;;;;;;;83.50;44.50;;;;;;;2.71;93.59;101059.92;107610;1254;95078;-59
2023/02/16 07:21:54;;;;;;;84.30;45.00;;;;;;;2.96;93.00;101063.94;107568;1256;80738;-54
2023/02/16 07:24:35;;;;;;;82.90;48.20;;;;;;;3.26;92.42;101059.99;107397;1253;81245;-62
2023/02/16 07:27:19;;;;;;;87.90;47.00;;;;;;;3.64;92.53;101057.67;107591;1254;97857;-57
2023/02/16 07:30:04;;;;;;;79.90;47.70;;;;;;;3.93;91.82;101057.46;107586;1257;89182;-58
2023/02/16 07:32:49;;;;;;;81.40;46.90;;;;;;;4.09;91.51;101056.06;107570;1253;94981;-58
2023/02/16 07:35:24;;;;;;;81.70;48.00;;;;;;;4.20;91.55;101050.20;107597;1255;79265;-61
2023/02/16 07:38:08;;;;;;;78.70;46.90;;;;;;;4.32;90.98;101048.63;107608;1254;83203;-56
2023/02/16 07:40:45;;;;;;;83.70;48.20;;;;;;;4.40;90.19;101043.81;107555;1255;100591;-58
2023/02/16 07:43:32;;;;;;;81.20;47.20;;;;;;;4.46;90.12;101039.20;107606;1255;89390;-59
2023/02/16 07:46:12;;;;;;;81.90;48.00;;;;;;;4.41;89.62;101040.48;107587;1257;94603;-57
2023/02/16 07:48:58;;;;;;;83.60;47.40;;;;;;;4.40;89.02;101036.27;107614;1254;79483;-58
2023/02/16 07:51:45;;;;;;;74.60;44.40;;;;;;;4.46;89.29;101037.39;107599;1252;83653;-57
2023/02/16 07:54:24;;;;;;;78.90;46.40;;;;;;;4.72;88.98;101039.55;107583;1254;100077;-59
2023/02/16 07:57:03;;;;;;;80.80;46.70;;;;;;;5.02;88.35;101036.81;107570;1257;89288;-59
2023/02/16 07:59:41;;;;;;;78.10;47.10;;;;;;;5.48;87.60;101032.89;107606;1253;93841;-55
2023/02/16 08:02:21;;;;;;;81.60;48.30;;;;;;;6.00;87.68;101032.50;107553;1257;79319;-58
2023/02/16 08:05:06;;;;;;;78.50;48.50;;;;;;;6.48;87.48;101028.38;107583;1254;81190;-58
2023/02/16 08:07:47;;;;;;;76.70;46.90;;;;;;;6.82;86.69;101027.36;107635;1252;99429;-59
2023/02/16 08:10:27;;;;;;;75.90;48.20;;;;;;;6.93;86.61;101018.95;107590;1253;89178;-57
2023/02/16 08:13:05;;;;;;;76.50;47.50;;;;;;;7.20;86.57;101013.51;107560;1255;93818;-61
2023/02/16 08:15:44;;;;;;;72.00;45.30;;;;;;;7.67;85.07;101011.21;107588;1254;79153;-59
2023/02/16 08:18:27;;;;;;;73.00;47.80;;;;;;;8.06;84.50;101011.90;107592;1254;81341;-61
2023/02/16 08:21:14;;;;;;;69.10;46.00;;;;;;;8.28;84.35;101012.05;107602;1257;99475;-61
2023/02/16 08:24:01;;;;;;;68.00;47.30;;;;;;;8.57;84.21;101015.02;107597;1254;89075;-56
2023/02/16 08:26:43;;;;;;;66.60;45.30;;;;;;;8.77;83.87;101019.78;107619;1254;95370;-58
2023/02/16 08:29:24;;;;;;;68.50;45.30;;;;;;;9.03;83.57;101022.47;107541;1254;80418;-59
2023/02/16 08:32:07;;;;;;;65.70;46.00;;;;;;;8.86;83.10;101021.73;107620;1257;82839;-55
2023/02/16 08:34:46;;;;;;;61.80;44.80;;;;;;;8.96;82.90;101028.04;107608;1253;97697;-54
2023/02/16 08:37:25;;;;;;;64.30;43.30;;;;;;;9.30;81.59;101024.98;107566;1254;88149;-55
2023/02/16 08:40:10;;;;;;;63.60;44.60;;;;;;;9.26;81.80;101025.86;107594;1255;94837;-57
2023/02/16 08:42:55;;;;;;;63.60;44.50;;;;;;;9.20;81.36;101027.42;107578;1254;81112;-61
2023/02/16 08:45:36;;;;;;;66.70;44.20;;;;;;;9.20;80.76;101023.12;107616;1254;79971;-59
2023/02/16 08:48:12;;;;;;;64.90;44.50;;;;;;;9.01;79.67;101021.00;107641;1253;99929;-58
2023/02/16 08:50:52;;;;;;;59.90;42.60;;;;;;;8.94;78.94;101018.23;107604;1254;87877;-59
2023/02/16 08:53:32;;;;;;;63.80;42.60;;;;;;;9.06;78.84;101020.86;107577;1257;95942;-62
2023/02/16 08:56:28;;;;;;;61.50;43.50;;;;;;;9.05;78.29;101016.27;107583;1254;79266;-62
2023/02/16 08:59:13;;;;;;;58.60;41.30;;;;;;;8.98;77.64;101008.02;107613;1254;81846;-61
2023/02/16 09:01:56;;;;;;;62.40;42.10;;;;;;;8.95;77.76;101005.12;107597;1254;98537;-62
2023/02/16 09:04:37;;;;;;;61.50;42.90;;;;;;;8.89;78.16;101002.18;107584;1253;89359;-60
2023/02/16 09:07:14;;;;;;;62.00;43.00;;;;;;;9.19;77.96;101000.06;107570;1254;93916;-61
2023/02/16 09:10:00;;;;;;;63.30;42.60;;;;;;;9.41;77.69;100999.70;107620;1257;80334;-62
2023/02/16 09:12:38;;;;;;;57.90;41.90;;;;;;;9.35;77.52;101001.27;107629;1254;81640;-60
2023/02/16 09:15:13;;;;;;;60.20;43.10;;;;;;;9.50;77.04;100998.75;107635;1254;99035;-62
2023/02/16 09:17:58;;;;;;;55.50;40.70;;;;;;;9.71;76.68;101002.37;107614;1254;88875;-61
2023/02/16 09:20:40;;;;;;;59.50;42.70;;;;;;;9.97;75.62;101004.44;107607;1255;94803;-60
2023/02/16 09:23:20;;;;;;;58.50;42.20;;;;;;;10.25;74.71;101004.09;107607;1254;80820;-60
2023/02/16 09:26:07;;;;;;;55.90;41.60;;;;;;;10.45;75.12;101004.23;107642;1254;83257;-57
2023/02/16 09:28:45;;;;;;;55.00;40.30;;;;;;;10.68;74.29;101000.53;107604;1254;97867;-59
2023/02/16 09:31:29;;;;;;;55.90;41.40;;;;;;;10.82;73.72;101002.86;107586;1253;88786;-59
2023/02/16 09:34:09;;;;;;;57.80;41.50;;;;;;;10.85;72.91;101006.84;107561;1253;94925;-60
2023/02/16 09:36:49;;;;;;;59.30;43.10;;;;;;;10.65;71.44;101013.89;107596;1253;78873;-61
2023/02/16 09:39:30;;;;;;;57.30;42.10;;;;;;;10.38;69.92;101006.51;107588;1254;80799;-61
2023/02/16 09:42:28;;;;;;;54.80;41.70;;;;;;;10.26;71.11;101004.48;107608;1254;99218;-61
2023/02/16 09:45:13;;;;;;;58.70;40.20;;;;;;;10.22;71.23;100999.20;107633;1253;88584;-52
2023/02/16 09:47:59;;;;;;;60.70;42.30;;;;;;;10.12;71.40;101004.19;107599;1257;94844;-58
2023/02/16 09:50:45;;;;;;;60.50;41.60;;;;;;;10.34;71.16;100997.95;107627;1257;80499;-58
2023/02/16 09:53:32;;;;;;;56.40;40.50;;;;;;;10.42;69.69;100999.88;107620;1253;83257;-59
2023/02/16 09:56:26;;;;;;;58.00;39.50;;;;;;;10.14;70.65;101002.98;107633;1254;99755;-62
2023/02/16 09:59:10;;;;;;;56.20;39.90;;;;;;;10.27;69.98;101004.79;107623;1253;88855;-59
2023/02/16 10:01:56;;;;;;;61.00;41.60;;;;;;;10.23;68.61;101001.79;107572;1254;95396;-58
2023/02/16 10:04:45;;;;;;;58.50;41.10;;;;;;;10.23;69.94;100996.53;107595;1254;80467;-61
2023/02/16 10:07:50;;;;;;;54.20;40.60;;;;;;;10.50;70.16;100993.03;107604;1254;81062;-60
2023/02/16 10:10:38;;;;;;;58.60;41.40;;;;;;;10.79;70.10;100997.48;107577;1253;98484;-52
2023/02/16 10:13:24;;;;;;;56.80;39.90;;;;;;;10.95;69.83;100988.91;107588;1256;88934;-60
2023/02/16 10:16:05;;;;;;;53.30;40.10;;;;;;;10.84;70.00;100985.55;107600;1253;94170;-60
2023/02/16 10:18:50;;;;;;;55.70;40.40;;;;;;;10.81;69.66;100985.34;107384;1254;79932;-55
2023/02/16 10:21:31;;;;;;;55.70;40.00;;;;;;;10.67;69.56;100989.49;107595;1252;80611;-60
2023/02/16 10:24:13;;;;;;;58.50;40.20;;;;;;;10.61;69.49;100988.03;107651;1254;99882;-58
2023/02/16 10:27:01;;;;;;;58.30;42.00;;;;;;;10.42;68.19;100987.36;107609;1252;89534;-57
2023/02/16 10:29:36;;;;;;;60.10;42.40;;;;;;;9.99;67.53;100978.46;107594;1253;94324;-60
2023/02/16 10:32:27;;;;;;;57.50;40.20;;;;;;;9.70;67.17;100984.09;107559;1253;80480;-59
2023/02/16 10:35:16;;;;;;;62.00;41.60;;;;;;;9.38;66.90;100983.52;107632;1254;82023;-59
2023/02/16 10:38:02;;;;;;;60.40;40.20;;;;;;;9.15;66.46;100978.36;107613;1254;98944;-59
2023/02/16 10:40:51;;;;;;;60.90;41.10;;;;;;;8.89;66.52;100973.05;107589;1252;87628;-58
2023/02/16 10:43:42;;;;;;;64.70;41.20;;;;;;;8.66;66.83;100970.05;107363;1257;94585;-61
2023/02/16 10:46:33;;;;;;;63.80;40.60;;;;;;;8.42;66.70;100965.04;107364;1254;80054;-61
2023/02/16 10:49:16;;;;;;;61.80;40.20;;;;;;;8.27;67.17;100963.95;107374;1254;81844;-59
2023/02/16 10:51:53;;;;;;;61.80;40.00;;;;;;;8.08;67.76;100965.00;107323;1254;99561;-58
2023/02/16 10:54:35;;;;;;;62.50;40.30;;;;;;;7.99;68.13;100956.73;107381;1254;87992;-58
2023/02/16 10:57:26;;;;;;;61.70;40.10;;;;;;;7.97;68.93;100954.20;107326;1255;95465;-59
2023/02/16 11:00:10;;;;;;;64.80;41.00;;;;;;;8.04;69.43;100950.21;107373;1254;81167;-59
2023/02/16 11:02:50;;;;;;;62.60;39.60;;;;;;;8.08;69.78;100953.40;107398;1255;81215;-59
2023/02/16 11:05:40;;;;;;;59.90;38.30;;;;;;;8.07;70.31;100947.77;107386;1253;100231;-55
2023/02/16 11:08:18;;;;;;;63.80;40.40;;;;;;;8.08;70.59;100947.63;107385;1254;89237;-60
2023/02/16 11:10:54;;;;;;;59.80;38.30;;;;;;;8.09;70.24;100950.58;107365;1257;92814;-63
2023/02/16 11:13:38;;;;;;;61.40;38.20;;;;;;;8.00;70.10;100949.41;107338;1254;79281;-58
2023/02/16 11:16:21;;;;;;;60.60;37.40;;;;;;;7.96;70.05;100946.40;107357;1254;82160;-52
2023/02/16 11:19:07;;;;;;;58.50;37.50;;;;;;;7.94;70.52;100944.48;107403;1254;99743;-61
2023/02/16 11:21:50;;;;;;;58.70;38.70;;;;;;;7.90;70.46;100941.15;107407;1257;87802;-61
2023/02/16 11:24:39;;;;;;;57.50;37.80;;;;;;;7.97;70.62;100944.31;107406;1255;94943;-62
2023/02/16 11:27:24;;;;;;;61.80;38.40;;;;;;;8.01;70.17;100936.95;107368;1253;78999;-58
2023/02/16 11:30:30;;;;;;;60.70;37.90;;;;;;;8.01;70.34;100942.87;107352;1254;83043;-61
2023/02/16 11:33:21;;;;;;;61.20;39.10;;;;;;;7.85;69.76;100939.00;107345;1254;99534;-62
2023/02/16 11:36:04;;;;;;;62.30;38.60;;;;;;;7.80;70.06;100941.09;107361;1254;88459;-59
2023/02/16 11:38:56;;;;;;;57.50;36.60;;;;;;;7.75;70.32;100941.55;107341;1254;95010;-61
2023/02/16 11:41:33;;;;;;;60.80;37.60;;;;;;;7.84;70.80;100936.91;107449;1257;79776;-61
2023/02/16 11:44:26;;;;;;;57.70;36.30;;;;;;;7.95;71.03;100937.41;107594;1254;83747;-61
2023/02/16 11:47:06;;;;;;;58.40;37.90;;;;;;;8.03;71.16;100935.45;107607;1252;99979;-60
2023/02/16 11:50:05;;;;;;;58.50;37.50;;;;;;;8.11;71.33;100933.71;107432;1253;88333;-59
2023/02/16 11:52:48;;;;;;;56.20;35.40;;;;;;;8.20;71.51;100934.29;107573;1252;95413;-52
2023/02/16 11:55:32;;;;;;;61.60;38.60;;;;;;;8.23;71.17;100935.44;107589;1253;79923;-59
2023/02/16 11:58:25;;;;;;;57.50;35.80;;;;;;;8.11;70.88;100931.55;107618;1255;82274;-58
2023/02/16 12:01:20;;;;;;;54.90;34.90;;;;;;;8.07;71.08;100928.55;107588;1253;99642;-59
2023/02/16 12:04:06;;;;;;;;;;;;;;;8.03;71.42;100921.96;107647;1253;88361;-57
2023/02/16 12:07:03;;;;;;;56.80;35.40;;;;;;;8.07;71.77;100920.81;107579;1252;95132;-58
2023/02/16 12:09:53;;;;;;;57.30;35.80;;;;;;;8.03;71.32;100919.67;107610;1252;78240;-58
2023/02/16 12:12:39;;;;;;;55.40;34.40;;;;;;;7.91;71.37;100918.05;107653;1253;81374;-59
2023/02/16 12:15:28;;;;;;;56.10;36.20;;;;;;;7.89;71.57;100917.60;107601;1252;97245;-58
2023/02/16 12:18:27;;;;;;;53.70;34.50;;;;;;;7.85;71.71;100913.74;107628;1253;89506;-57
2023/02/16 12:21:13;;;;;;;55.10;34.30;;;;;;;7.75;71.88;100912.02;107549;1253;94971;-58
2023/02/16 12:24:05;;;;;;;60.70;35.30;;;;;;;7.65;72.23;100906.37;107593;1253;78835;-60
2023/02/16 12:26:50;;;;;;;54.50;34.30;;;;;;;7.67;72.25;100906.56;107612;1252;82555;-61
2023/02/16 12:29:43;;;;;;;55.10;34.10;;;;;;;7.69;72.50;100905.81;107626;1252;100113;-62
2023/02/16 12:32:40;;;;;;;52.10;33.60;;;;;;;7.75;72.59;100911.48;107607;1253;89320;-57
2023/02/16 12:35:56;;;;;;;59.60;37.30;;;;;;;7.72;72.73;100915.58;107624;1253;93362;-61
2023/02/16 12:38:54;;;;;;;60.40;34.80;;;;;;;7.72;72.90;100910.64;107012;1258;79463;-62
2023/02/16 12:41:45;;;;;;;55.90;35.40;;;;;;;7.79;72.76;100905.94;107590;1253;80523;-61
2023/02/16 12:44:32;;;;;;;54.30;34.00;;;;;;;7.78;73.01;100901.91;107605;1252;99395;-58
2023/02/16 12:47:20;;;;;;;57.40;35.60;;;;;;;7.76;73.01;100900.98;107590;1253;89151;-59
2023/02/16 12:50:00;;;;;;;56.30;34.80;;;;;;;7.70;72.99;100900.27;107621;1252;92993;-62
2023/02/16 12:52:51;;;;;;;55.40;35.00;;;;;;;7.69;73.14;100899.53;106974;1253;663964;-61
2023/02/16 12:55:39;;;;;;;56.00;34.60;;;;;;;7.66;73.31;100897.48;107605;1252;82212;-60
2023/02/16 12:58:29;;;;;;;51.10;33.00;;;;;;;7.62;73.23;100895.73;107613;1254;99166;-60
2023/02/16 13:01:13;;;;;;;54.00;33.20;;;;;;;7.58;73.47;100891.97;107623;1253;89857;-52
2023/02/16 13:03:57;;;;;;;53.20;35.10;;;;;;;7.54;73.48;100889.69;107598;1252;95103;-58
2023/02/16 13:06:43;;;;;;;51.30;31.50;;;;;;;7.53;73.59;100885.81;107583;1252;81147;-58